createdAt,value
2019-06-07T00:07:35.971Z,0.00
2019-06-07T00:22:36.094Z,0.00
2019-06-07T00:37:36.267Z,0.00
2019-06-07T01:07:41.680Z,0.00
2019-06-07T01:22:41.803Z,0.00
2019-06-07T01:37:43.511Z,0.00
2019-06-07T01:52:43.686Z,0.00
2019-06-07T02:07:43.889Z,0.00
2019-06-07T02:22:44.074Z,12.00
2019-06-07T02:37:44.313Z,64.00
2019-06-07T02:52:44.504Z,216.00
2019-06-07T03:07:45.708Z,536.00
2019-06-07T03:22:45.818Z,892.00
2019-06-07T03:37:46.238Z,1616.00
2019-06-07T03:52:47.007Z,2032.00
2019-06-07T04:07:47.225Z,2532.00
2019-06-07T04:22:47.393Z,2556.00
2019-06-07T04:37:47.615Z,4020.00
2019-06-07T04:52:48.040Z,4764.00
2019-06-07T05:07:48.130Z,5472.00
2019-06-07T05:22:48.429Z,6088.00
2019-06-07T05:37:48.673Z,6724.00
2019-06-07T05:52:48.832Z,7336.00
2019-06-07T06:07:50.793Z,7768.00
2019-06-07T06:22:51.755Z,8164.00
2019-06-07T06:37:53.338Z,8940.00
2019-06-07T06:52:54.941Z,9928.00
2019-06-07T07:07:55.233Z,14000.00
2019-06-07T07:22:57.187Z,17280.00
2019-06-07T07:37:59.838Z,21760.00
2019-06-07T07:53:00.924Z,22912.00
2019-06-07T08:08:04.984Z,28864.00
2019-06-07T08:23:06.066Z,36928.00
2019-06-07T08:38:27.628Z,38336.00
2019-06-07T08:53:12.464Z,10868.00
2019-06-07T09:08:29.212Z,11420.00
2019-06-07T09:23:18.050Z,14732.00
2019-06-07T09:38:25.756Z,58304.00
2019-06-07T09:53:23.977Z,49824.00
2019-06-07T10:09:42.577Z,67424.00
2019-06-07T10:23:29.393Z,77024.00
2019-06-07T10:38:29.506Z,74112.00
2019-06-07T10:53:29.568Z,36000.00
2019-06-07T11:08:29.729Z,19200.00
2019-06-07T11:23:29.902Z,17952.00
2019-06-07T11:38:30.024Z,71712.00
2019-06-07T11:53:30.233Z,61152.00
2019-06-07T12:08:30.374Z,64384.00
2019-06-07T12:23:30.555Z,37632.00
2019-06-07T12:38:30.782Z,61088.00
2019-06-07T12:53:30.847Z,54496.00
2019-06-07T13:08:31.003Z,46688.00
2019-06-07T13:23:31.202Z,52064.00
2019-06-07T13:38:31.366Z,39808.00
2019-06-07T13:53:31.584Z,34944.00
2019-06-07T14:08:31.706Z,29184.00
2019-06-07T14:23:45.892Z,24896.00
2019-06-07T14:38:37.778Z,17920.00
2019-06-07T14:53:38.358Z,14080.00
2019-06-07T15:08:39.186Z,12316.00
2019-06-07T15:23:39.784Z,8908.00
2019-06-07T15:38:40.085Z,8064.00
2019-06-07T15:53:44.466Z,7788.00
2019-06-07T16:08:45.448Z,7344.00
2019-06-07T16:23:45.738Z,6660.00
2019-06-07T16:38:45.868Z,5324.00
2019-06-07T16:53:46.006Z,4764.00
2019-06-07T17:08:46.322Z,4340.00
2019-06-07T17:23:47.418Z,3652.00
2019-06-07T17:38:48.679Z,3064.00
2019-06-07T17:53:49.847Z,2636.00
2019-06-07T18:08:49.844Z,2264.00
2019-06-07T18:23:50.326Z,1836.00
2019-06-07T18:38:50.896Z,1416.00
2019-06-07T18:53:51.688Z,968.00
2019-06-07T19:08:55.559Z,556.00
2019-06-07T19:23:57.959Z,236.00
2019-06-07T19:38:58.056Z,68.00
2019-06-07T19:53:59.099Z,12.00
2019-06-07T20:08:59.234Z,4.00
2019-06-07T20:24:00.191Z,0.00
2019-06-07T20:39:06.130Z,0.00
2019-06-07T20:54:07.406Z,0.00
2019-06-07T21:09:08.058Z,0.00
2019-06-07T21:24:08.758Z,0.00
2019-06-07T21:39:10.316Z,0.00
2019-06-07T21:54:13.110Z,0.00
2019-06-07T22:09:15.263Z,0.00
2019-06-07T22:24:15.396Z,0.00
2019-06-07T22:39:16.074Z,0.00
2019-06-07T22:54:16.218Z,0.00
2019-06-07T23:09:17.119Z,0.00
2019-06-07T23:24:19.578Z,0.00
2019-06-07T23:39:22.493Z,0.00
2019-06-07T23:54:22.900Z,0.00
